Time;durP1;ratioP1;P1;durP2;ratioP2;P2;SDS_P1;SDS_P2;PMS_P1;PMS_P2;Temp;Humidity;BMP_temperature;BMP_pressure;BME280_temperature;BME280_humidity;BME280_pressure;Samples;Min_cycle;Max_cycle;Signal;HPM_P1;HPM_P2
2022/05/15 06:12:44;;;;;;;;;5.00;3.00;;;;;19.68;79.43;100903.88;6364077;22;45379;-88
2022/05/15 06:15:10;;;;;;;;;5.00;2.67;;;;;19.80;79.43;100902.19;6336444;22;45958;-91
2022/05/15 06:17:36;;;;;;;;;4.00;4.00;;;;;19.98;79.86;100909.47;6363462;22;45845;-90
2022/05/15 06:20:09;;;;;;;;;4.00;4.00;;;;;20.13;79.57;100914.06;6365234;22;45328;-88
2022/05/15 06:22:34;;;;;;;;;3.00;3.00;;;;;20.23;79.37;100914.16;6364311;22;45780;-88
2022/05/15 06:25:00;;;;;;;;;4.00;4.00;;;;;20.31;78.75;100918.63;6335950;22;47851;-88
2022/05/15 06:27:25;;;;;;;;;3.00;3.00;;;;;20.36;78.82;100917.81;6365781;22;45331;-90
2022/05/15 06:29:51;;;;;;;;;4.00;3.00;;;;;20.46;78.33;100916.09;6365422;22;45408;-89
2022/05/15 06:32:16;;;;;;;;;5.33;4.00;;;;;20.48;78.51;100916.97;6365842;22;45229;-90
2022/05/15 06:34:42;;;;;;;;;5.00;5.00;;;;;20.52;78.35;100909.00;6364135;22;46483;-90
2022/05/15 06:37:08;;;;;;;;;4.00;3.67;;;;;20.57;78.41;100914.38;6364745;22;46081;-89
2022/05/15 06:39:33;;;;;;;;;5.00;5.00;;;;;20.69;78.42;100926.91;6364993;22;45709;-89
2022/05/15 06:42:00;;;;;;;;;7.00;5.33;;;;;20.87;78.45;100922.56;6336059;22;49663;-88
2022/05/15 06:44:26;;;;;;;;;3.00;3.00;;;;;21.08;78.32;100935.13;6364462;22;45255;-88
2022/05/15 06:46:51;;;;;;;;;4.67;4.00;;;;;21.21;77.83;100933.41;6365012;22;45344;-88
2022/05/15 06:49:16;;;;;;;;;3.00;2.00;;;;;21.25;77.62;100939.66;6336006;22;45377;-88
2022/05/15 06:51:43;;;;;;;;;5.33;5.00;;;;;21.32;77.59;100943.22;6336309;22;45447;-88
2022/05/15 06:54:08;;;;;;;;;5.00;5.00;;;;;21.40;nan;100961.94;6336334;22;47866;-88
2022/05/15 06:59:17;;;;;;;;;5.00;5.00;;;;;21.48;77.03;100943.28;6364657;22;45335;-89
2022/05/15 07:01:43;;;;;;;;;4.67;4.67;;;;;21.57;77.01;100937.94;6364369;22;45543;-89
2022/05/15 07:04:08;;;;;;;;;5.00;5.00;;;;;21.66;76.88;100932.66;6364032;22;56720;-89
2022/05/15 07:06:33;;;;;;;;;5.00;5.00;;;;;21.75;76.43;100933.56;6365360;22;45252;-89
2022/05/15 07:08:59;;;;;;;;;5.00;4.67;;;;;21.77;76.68;100934.44;6336148;22;58382;-92
2022/05/15 07:11:24;;;;;;;;;6.67;4.67;;;;;21.83;76.51;100934.44;6337324;22;45552;-90
2022/05/15 07:13:50;;;;;;;;;7.67;5.67;;;;;21.91;76.60;100922.91;6337058;22;47699;-90
2022/05/15 07:16:15;;;;;;;;;4.00;4.00;;;;;22.06;76.83;100927.38;6337783;22;45317;-91
2022/05/15 07:18:41;;;;;;;;;4.00;4.00;;;;;22.28;76.48;100930.03;6365610;22;45336;-88
2022/05/15 07:21:07;;;;;;;;;5.33;5.33;;;;;22.48;76.05;100926.44;6366982;22;45412;-90
2022/05/15 07:23:32;;;;;;;;;7.00;6.33;;;;;22.59;76.02;100929.09;6366024;22;45533;-87
2022/05/15 07:25:57;;;;;;;;;6.00;4.67;;;;;22.64;76.16;100930.88;6337882;22;45844;-88
2022/05/15 07:28:23;;;;;;;;;12.33;5.33;;;;;22.68;75.43;100931.75;6336873;22;45344;-89
2022/05/15 07:30:49;;;;;;;;;6.00;6.00;;;;;22.69;75.14;100928.19;6339027;22;45485;-92
2022/05/15 07:33:21;;;;;;;;;5.33;4.33;;;;;22.61;75.13;100933.56;6366682;22;46406;-90
2022/05/15 07:35:47;;;;;;;;;5.00;4.00;;;;;22.57;75.35;100944.28;6365277;22;45644;-95
2022/05/15 07:38:12;;;;;;;;;5.00;4.00;;;;;22.49;74.85;100947.84;6367068;22;45219;-94
2022/05/15 07:40:37;;;;;;;;;5.00;5.00;;;;;22.40;74.95;100939.81;6338495;22;45577;-92
2022/05/15 07:43:08;;;;;;;;;5.00;5.00;;;;;22.40;75.15;100940.72;6361776;22;46386;-91
2022/05/15 07:45:33;;;;;;;;;5.33;4.67;;;;;22.37;74.83;100939.84;6366625;22;45351;-91
2022/05/15 07:47:59;;;;;;;;;4.67;4.00;;;;;22.44;75.04;100946.97;6338090;22;45244;-91
2022/05/15 07:50:24;;;;;;;;;2.67;1.67;;;;;22.54;75.18;100940.72;6337754;22;45616;-92
2022/05/15 07:52:50;;;;;;;;;7.00;5.67;;;;;22.68;75.25;100931.75;6337262;22;50476;-91
2022/05/15 07:55:15;;;;;;;;;5.00;4.33;;;;;22.84;75.24;100929.97;6365823;22;45327;-91
2022/05/15 07:57:41;;;;;;;;;2.33;2.33;;;;;22.97;74.62;100928.13;6337174;22;45254;-93
2022/05/15 08:00:09;;;;;;;;;4.67;3.00;;;;;23.16;74.11;100933.44;6366470;22;50878;-92
2022/05/15 08:02:35;;;;;;;;;3.00;3.00;;;;;23.31;74.27;100940.50;6337399;22;48074;-91
2022/05/15 08:08:01;;;;;;;;;4.00;4.00;;;;;23.94;73.92;100944.63;6366127;22;45689;-91
2022/05/15 08:10:34;;;;;;;;;3.00;3.00;;;;;24.26;73.44;100943.47;6364131;22;45957;-92
2022/05/15 08:12:59;;;;;;;;;4.33;4.33;;;;;24.50;73.26;100940.59;6366492;22;46021;-90
2022/05/15 08:15:26;;;;;;;;;5.67;3.00;;;;;24.64;72.70;100938.63;6337923;22;45496;-90
2022/05/15 08:17:52;;;;;;;;;4.33;3.33;;;;;24.75;71.95;100945.69;6364964;22;45422;-92
2022/05/15 08:25:46;;;;;;;;;3.00;2.00;;;;;24.96;71.46;100955.28;6365563;22;45257;-91
2022/05/15 08:28:13;;;;;;;;;2.33;2.33;;;;;25.08;70.83;100956.97;6365760;22;45386;-91
2022/05/15 08:30:39;;;;;;;;;1.33;0.67;;;;;25.17;71.09;100947.91;6337791;22;45406;-90
2022/05/15 08:33:07;;;;;;;;;3.00;3.00;;;;;25.35;70.47;100959.31;6365565;22;45358;-91
2022/05/15 08:35:33;;;;;;;;;2.00;2.00;;;;;25.47;70.52;100965.44;6365142;22;45664;-90
2022/05/15 08:37:58;;;;;;;;;2.00;2.00;;;;;25.49;69.77;100975.25;6336978;22;45324;-91
2022/05/15 08:40:28;;;;;;;;;2.67;2.67;;;;;25.50;69.89;100979.72;6332923;22;45355;-88
2022/05/15 08:42:56;;;;;;;;;3.67;3.00;;;;;25.51;69.21;100972.56;6363154;22;47359;-87
2022/05/15 08:45:32;;;;;;;;;2.67;2.00;;;;;25.55;69.29;100969.78;6362652;22;45901;-88
2022/05/15 08:48:12;;;;;;;;;3.00;2.33;;;;;25.66;68.85;100979.50;6336929;22;45689;-88
2022/05/15 08:50:44;;;;;;;;;3.00;3.00;;;;;25.84;68.41;100985.56;6365317;22;45301;-89
2022/05/15 08:53:37;;;;;;;;;1.00;1.00;;;;;26.05;67.70;100988.81;6334151;22;48110;-89
2022/05/15 08:56:07;;;;;;;;;4.00;3.00;;;;;26.25;67.74;100987.59;6358492;22;45645;-90
2022/05/15 08:58:39;;;;;;;;;1.00;1.00;;;;;26.51;67.66;100991.69;6364886;22;45380;-89
2022/05/15 09:01:06;;;;;;;;;3.00;2.00;;;;;26.81;66.80;101005.47;6364930;22;45288;-88
2022/05/15 09:03:35;;;;;;;;;4.00;4.00;;;;;27.07;66.53;101004.09;6362040;22;47159;-90
2022/05/15 09:06:25;;;;;;;;;1.33;1.33;;;;;27.27;66.31;101000.13;6362664;22;45608;-89
2022/05/15 09:09:02;;;;;;;;;0.67;0.67;;;;;27.50;65.52;101009.53;6364486;22;45287;-91
2022/05/15 09:11:55;;;;;;;;;2.00;2.00;;;;;27.54;64.97;101019.34;6336749;22;45557;-90
2022/05/15 09:14:34;;;;;;;;;2.33;2.33;;;;;27.43;64.71;101021.34;6365565;22;46378;-90
2022/05/15 09:17:14;;;;;;;;;1.00;1.00;;;;;27.19;64.76;101023.63;6336499;22;45417;-90
2022/05/15 09:19:39;;;;;;;;;2.67;2.67;;;;;27.18;64.33;101019.19;6336710;22;45305;-90
2022/05/15 09:22:05;;;;;;;;;2.00;2.00;;;;;27.22;64.13;101018.19;6334946;22;57665;-89
2022/05/15 09:24:52;;;;;;;;;3.00;2.00;;;;;27.36;63.73;101017.03;6365288;22;45495;-92
2022/05/15 09:27:27;;;;;;;;;1.00;1.00;;;;;27.52;62.99;101028.38;6366081;22;45807;-90
2022/05/15 09:29:58;;;;;;;;;1.67;1.67;;;;;27.62;63.01;101029.94;6365700;22;45279;-90
2022/05/15 09:32:29;;;;;;;;;1.33;0.33;;;;;27.71;61.87;101036.94;6365534;22;45388;-89
2022/05/15 09:35:00;;;;;;;;;1.00;1.00;;;;;27.84;62.00;101042.97;6336348;22;47432;-91
2022/05/15 09:43:54;;;;;;;;;3.67;2.00;;;;;30.59;61.33;101035.34;6365252;22;45386;-91
2022/05/15 09:46:23;;;;;;;;;1.00;1.00;;;;;31.61;59.86;101037.13;6336481;22;47618;-88
2022/05/15 09:49:14;;;;;;;;;4.00;3.00;;;;;32.43;58.81;101044.72;6364992;22;45203;-88
2022/05/15 09:51:47;;;;;;;;;2.00;2.00;;;;;32.77;57.50;101048.72;6334685;22;45253;-91
2022/05/15 09:54:28;;;;;;;;;2.33;1.00;;;;;33.41;57.15;101047.72;6337372;22;45349;-90
2022/05/15 09:57:10;;;;;;;;;1.67;1.67;;;;;34.83;56.84;101047.16;6365856;22;46166;-92
2022/05/15 09:59:35;;;;;;;;;1.33;1.33;;;;;36.49;55.13;101041.69;6336891;22;45385;-91
2022/05/15 10:02:01;;;;;;;;;2.33;1.33;;;;;38.17;53.71;101040.25;6365496;22;45248;-93
2022/05/15 10:04:37;;;;;;;;;1.33;1.33;;;;;39.87;52.99;101045.75;6364510;22;45475;-90
2022/05/15 10:07:05;;;;;;;;;1.00;1.00;;;;;41.55;49.24;101053.91;6364362;22;45694;-90
2022/05/15 10:09:33;;;;;;;;;1.33;1.33;;;;;42.04;48.76;101050.81;6337973;22;45282;-93
2022/05/15 10:12:04;;;;;;;;;1.00;1.00;;;;;42.62;47.50;101051.44;6337597;22;45266;-96
2022/05/15 10:14:34;;;;;;;;;1.33;1.33;;;;;43.07;46.00;101046.59;6365461;22;45197;-90
2022/05/15 10:17:01;;;;;;;;;1.00;1.00;;;;;44.17;45.22;101047.78;6362452;22;46531;-89
2022/05/15 10:19:37;;;;;;;;;3.00;3.00;;;;;45.52;43.62;101045.94;6367704;22;45422;-92
2022/05/15 10:22:16;;;;;;;;;2.00;1.00;;;;;46.64;42.05;101038.34;6365476;22;45316;-91
2022/05/15 10:24:44;;;;;;;;;1.67;1.67;;;;;47.81;40.35;101043.53;6366707;22;45475;-94
2022/05/15 10:27:20;;;;;;;;;1.00;1.00;;;;;48.70;39.04;101035.50;6367694;22;45236;-92
2022/05/15 10:30:11;;;;;;;;;1.67;1.67;;;;;48.72;37.41;101029.75;6368088;22;45311;-91
2022/05/15 10:32:39;;;;;;;;;3.33;2.33;;;;;48.44;37.29;101028.22;6365991;22;45336;-88
2022/05/15 10:35:07;;;;;;;;;4.00;3.00;;;;;48.15;36.71;101030.53;6365116;22;45281;-91
2022/05/15 10:37:44;;;;;;;;;3.00;3.00;;;;;48.64;36.44;101037.09;6364016;22;45336;-89
2022/05/15 10:40:41;;;;;;;;;1.00;1.00;;;;;49.61;35.41;101027.78;6333435;22;45343;-91
2022/05/15 10:43:33;;;;;;;;;0.67;0.67;;;;;50.84;34.78;101035.47;6364496;22;45692;-89
2022/05/15 10:46:23;;;;;;;;;0.33;0.33;;;;;51.63;32.96;101030.22;6337400;22;45396;-90
2022/05/15 10:49:26;;;;;;;;;1.33;1.00;;;;;52.54;32.99;101031.69;6338402;22;48230;-88
2022/05/15 10:52:01;;;;;;;;;1.00;0.00;;;;;53.22;32.15;101029.25;6367300;22;45372;-89
2022/05/15 10:58:09;;;;;;;;;3.33;1.67;;;;;54.59;30.77;101022.66;6368770;22;45342;-90
2022/05/15 11:00:55;;;;;;;;;4.00;2.00;;;;;55.16;30.07;101023.09;6368535;22;46422;-91
2022/05/15 11:03:51;;;;;;;;;3.00;3.00;;;;;55.90;30.45;101018.09;6340231;22;45990;-90
2022/05/15 11:06:29;;;;;;;;;2.00;2.00;;;;;56.00;29.46;101015.66;6341941;22;45468;-90
2022/05/15 11:09:07;;;;;;;;;2.33;2.00;;;;;56.20;29.39;101006.13;6368061;22;45220;-91
2022/05/15 11:11:56;;;;;;;;;2.00;2.00;;;;;56.68;28.62;101012.13;6368965;22;45857;-90
2022/05/15 11:14:33;;;;;;;;;3.67;2.33;;;;;57.02;27.97;101013.69;6339171;22;45895;-93
2022/05/15 11:17:17;;;;;;;;;1.00;1.00;;;;;57.21;27.47;101005.19;6340793;22;45539;-92
2022/05/15 11:19:45;;;;;;;;;4.00;4.00;;;;;57.38;27.66;101002.56;6339634;22;45555;-91
2022/05/15 11:22:31;;;;;;;;;6.00;4.67;;;;;57.42;27.02;101003.81;6339706;22;48178;-92
2022/05/15 11:25:16;;;;;;;;;2.00;1.00;;;;;57.53;26.84;101001.25;6340005;22;45308;-93
2022/05/15 11:27:49;;;;;;;;;2.67;2.67;;;;;57.68;26.96;100998.81;6368837;22;45351;-92
2022/05/15 11:30:28;;;;;;;;;1.00;1.00;;;;;58.24;26.23;100993.97;6369089;22;45354;-91
2022/05/15 11:32:53;;;;;;;;;4.33;4.00;;;;;58.75;26.26;100992.50;6369133;22;45348;-94
2022/05/15 11:35:19;;;;;;;;;6.00;5.00;;;;;59.12;25.77;100991.31;6368807;22;45417;-91
2022/05/15 11:38:04;;;;;;;;;2.33;2.00;;;;;59.55;25.84;100993.75;6340344;22;45382;-92
2022/05/15 11:40:45;;;;;;;;;4.00;4.00;;;;;59.94;24.72;100984.47;6340252;22;45302;-92
2022/05/15 11:43:26;;;;;;;;;3.00;2.67;;;;;60.28;25.33;100982.69;6367688;22;45763;-93
2022/05/15 11:45:54;;;;;;;;;2.00;1.00;;;;;60.58;24.51;100975.72;6338858;22;45376;-92
2022/05/15 11:48:27;;;;;;;;;1.33;1.33;;;;;60.80;24.78;100974.88;6365490;22;45264;-93
2022/05/15 11:51:00;;;;;;;;;1.00;1.00;;;;;60.89;24.09;100978.06;6369173;22;45465;-91
2022/05/15 11:53:25;;;;;;;;;2.00;2.00;;;;;61.16;23.62;100973.53;6338894;22;47079;-92
2022/05/15 11:55:52;;;;;;;;;1.00;1.00;;;;;61.52;23.94;100982.38;6340061;22;45663;-92
2022/05/15 11:58:32;;;;;;;;;1.00;1.00;;;;;61.91;23.54;100989.78;6366513;22;45311;-91
2022/05/15 12:01:09;;;;;;;;;3.00;3.00;;;;;62.24;23.20;100986.88;6364110;22;45698;-90
2022/05/15 12:03:48;;;;;;;;;1.67;1.67;;;;;62.50;22.51;100974.75;6336674;22;48021;-92
2022/05/15 12:06:42;;;;;;;;;1.00;1.00;;;;;62.66;22.23;100969.94;6337045;22;45691;-92
2022/05/15 12:09:16;;;;;;;;;1.00;1.00;;;;;62.30;22.35;100967.81;6176364;23;45403;-91
2022/05/15 12:11:44;;;;;;;;;2.00;2.00;;;;;62.33;21.99;100967.28;6163212;23;45827;-92
2022/05/15 12:14:21;;;;;;;;;1.00;1.00;;;;;62.49;22.55;100973.03;6177576;23;45454;-89
2022/05/15 12:17:22;;;;;;;;;2.00;1.00;;;;;62.86;21.67;100976.84;6176719;23;45369;-93
2022/05/15 12:19:49;;;;;;;;;0.00;0.00;;;;;63.08;21.24;100963.53;6164778;23;45486;-94
2022/05/15 12:22:16;;;;;;;;;1.00;1.00;;;;;63.24;21.27;100968.09;6178051;23;45267;-91
2022/05/15 12:24:49;;;;;;;;;1.00;1.00;;;;;63.60;21.41;100966.34;6176588;23;45650;-89
2022/05/15 12:27:20;;;;;;;;;2.00;0.33;;;;;64.01;21.28;100962.59;6151714;23;45781;-91
2022/05/15 12:30:04;;;;;;;;;2.00;1.00;;;;;64.36;21.49;100964.72;6177152;23;45316;-92
2022/05/15 12:32:44;;;;;;;;;2.00;1.00;;;;;63.80;20.78;100953.22;6176124;23;45426;-90
2022/05/15 12:35:19;;;;;;;;;2.00;2.00;;;;;62.71;20.71;100954.88;6176360;23;46303;-91
2022/05/15 12:37:57;;;;;;;;;1.00;1.00;;;;;60.71;20.79;100943.31;6150946;23;45356;-92
2022/05/15 12:40:26;;;;;;;;;1.00;1.00;;;;;58.28;21.56;100932.22;6177193;23;45398;-88
2022/05/15 12:42:53;;;;;;;;;0.33;0.33;;;;;55.76;21.87;100941.38;6177066;23;45527;-89
2022/05/15 12:45:21;;;;;;;;;1.00;1.00;;;;;53.40;22.92;100938.09;6213198;22;45510;-92
2022/05/15 12:48:10;;;;;;;;;3.33;2.33;;;;;51.09;23.83;100928.97;6307650;22;45241;-91
2022/05/15 12:51:02;;;;;;;;;0.00;0.00;;;;;49.20;24.75;100918.31;6335944;22;45712;-92
2022/05/15 12:53:31;;;;;;;;;2.00;2.00;;;;;47.57;25.58;100914.59;6307353;22;45594;-91
2022/05/15 12:56:16;;;;;;;;;1.00;1.00;;;;;46.15;26.44;100912.09;6334089;22;46161;-92
2022/05/15 12:58:46;;;;;;;;;1.67;1.00;;;;;45.19;26.80;100899.63;6332294;22;45669;-92
2022/05/15 13:01:13;;;;;;;;;1.67;1.00;;;;;44.37;27.75;100908.59;6305676;22;45191;-90
2022/05/15 13:03:48;;;;;;;;;0.00;0.00;;;;;43.63;28.28;100902.56;6333984;22;45272;-89
2022/05/15 13:06:18;;;;;;;;;2.00;2.00;;;;;43.25;28.92;100898.72;6304735;22;49200;-89
2022/05/15 13:08:49;;;;;;;;;0.00;0.00;;;;;43.33;28.59;100901.69;6304667;22;45448;-91
2022/05/15 13:11:21;;;;;;;;;0.00;0.00;;;;;42.92;28.96;100899.84;6305348;22;45334;-91
2022/05/15 13:13:49;;;;;;;;;0.00;0.00;;;;;42.05;29.45;100898.25;6305282;22;45434;-90
2022/05/15 13:16:19;;;;;;;;;1.00;1.00;;;;;41.09;30.10;100889.66;6332948;22;45424;-91
2022/05/15 13:18:47;;;;;;;;;2.00;2.00;;;;;40.23;30.83;100899.28;6333424;22;45497;-90
2022/05/15 13:21:19;;;;;;;;;2.33;0.67;;;;;39.42;30.92;100888.00;6305962;22;45322;-89
2022/05/15 13:23:46;;;;;;;;;3.00;0.00;;;;;38.71;31.56;100888.59;6307178;22;45279;-90
2022/05/15 13:26:23;;;;;;;;;1.00;1.00;;;;;38.14;32.36;100881.59;6305934;22;47886;-89
2022/05/15 13:28:49;;;;;;;;;1.00;1.00;;;;;37.82;33.39;100876.44;6333127;22;45404;-89
2022/05/15 13:31:14;;;;;;;;;1.33;1.33;;;;;37.69;33.97;100873.69;6334158;22;45492;-89
2022/05/15 13:33:43;;;;;;;;;1.67;1.00;;;;;37.75;34.05;100876.91;6300910;22;45538;-90
2022/05/15 13:36:14;;;;;;;;;0.67;0.67;;;;;38.33;34.47;100877.50;6305880;22;47108;-90
2022/05/15 13:44:34;;;;;;;;;1.00;1.00;;;;;42.02;34.11;100868.19;6176594;23;45427;-89
2022/05/15 13:47:14;;;;;;;;;1.00;1.00;;;;;44.81;32.94;100860.06;6181844;23;45640;-88
2022/05/15 13:49:45;;;;;;;;;1.00;1.00;;;;;47.50;31.72;100852.41;6200743;22;45576;-89
2022/05/15 13:52:22;;;;;;;;;1.00;1.00;;;;;49.97;30.13;100858.13;6173712;23;45296;-89
2022/05/15 13:54:48;;;;;;;;;0.67;0.67;;;;;51.11;28.78;100847.78;6201021;22;45504;-89
2022/05/15 13:57:13;;;;;;;;;2.00;0.67;;;;;50.60;27.98;100861.56;6175707;23;48117;-92
2022/05/15 13:59:51;;;;;;;;;0.00;0.00;;;;;51.16;28.20;100859.25;6175462;23;45388;-91
2022/05/15 14:02:22;;;;;;;;;1.67;0.67;;;;;52.81;27.40;100860.97;6176303;23;45328;-92
2022/05/15 14:04:59;;;;;;;;;1.00;1.00;;;;;54.48;26.59;100855.72;6174959;23;45382;-92
2022/05/15 14:07:31;;;;;;;;;0.33;0.33;;;;;55.52;26.26;100845.53;6176295;23;45574;-91
2022/05/15 14:10:14;;;;;;;;;1.00;1.00;;;;;55.93;26.07;100840.38;6175930;23;45351;-90
2022/05/15 14:12:48;;;;;;;;;1.00;1.00;;;;;55.26;25.17;100839.94;6262421;22;45364;-90
2022/05/15 14:15:33;;;;;;;;;0.67;0.67;;;;;53.75;25.47;100838.84;6334197;22;45354;-91
2022/05/15 14:18:02;;;;;;;;;1.33;1.33;;;;;52.39;25.85;100831.09;6305342;22;47263;-90
2022/05/15 14:20:30;;;;;;;;;1.00;1.00;;;;;51.41;26.30;100820.56;6332983;22;45383;-90
2022/05/15 14:22:56;;;;;;;;;0.00;0.00;;;;;51.50;26.90;100826.00;6306186;22;45374;-91
2022/05/15 14:25:22;;;;;;;;;0.00;0.00;;;;;52.11;27.49;100818.03;6332382;22;45391;-90
2022/05/15 14:27:48;;;;;;;;;2.00;2.00;;;;;53.04;27.55;100822.47;6332048;22;45339;-91
2022/05/15 14:30:13;;;;;;;;;0.33;0.33;;;;;53.02;27.35;100819.88;6305344;22;45320;-90
2022/05/15 14:32:39;;;;;;;;;2.00;2.00;;;;;53.36;27.22;100793.81;6303748;22;45842;-89
2022/05/15 14:35:09;;;;;;;;;1.00;1.00;;;;;53.17;27.03;100805.63;6303097;22;45690;-89
2022/05/15 14:37:35;;;;;;;;;1.67;1.67;;;;;51.81;26.83;100805.13;6305889;22;47194;-89
2022/05/15 14:40:01;;;;;;;;;1.67;1.67;;;;;50.25;27.20;100806.38;6305406;22;45959;-91
2022/05/15 14:42:29;;;;;;;;;1.00;1.00;;;;;48.76;28.07;100800.06;6303208;22;45357;-92
2022/05/15 14:44:57;;;;;;;;;2.00;2.00;;;;;48.00;29.25;100798.63;6306644;22;45460;-91
2022/05/15 14:47:26;;;;;;;;;2.00;2.00;;;;;47.59;29.39;100794.88;6304608;22;48032;-92
2022/05/15 14:49:53;;;;;;;;;3.00;2.00;;;;;48.07;29.78;100789.41;6331326;22;45442;-89
2022/05/15 14:52:24;;;;;;;;;1.00;1.00;;;;;47.84;29.50;100783.75;6327155;22;45630;-91
2022/05/15 14:54:50;;;;;;;;;5.33;5.33;;;;;46.86;29.72;100785.28;6331048;22;45423;-94
2022/05/15 14:57:19;;;;;;;;;1.33;1.33;;;;;45.63;30.15;100767.75;6333380;22;46311;-92
2022/05/15 14:59:44;;;;;;;;;1.00;1.00;;;;;44.43;30.81;100773.31;6341561;22;45261;-96
2022/05/15 15:02:10;;;;;;;;;1.00;1.00;;;;;43.37;31.60;100770.59;6346756;22;45234;-96
2022/05/15 15:04:36;;;;;;;;;1.00;1.00;;;;;42.48;32.15;100767.69;6345948;22;45383;-94
2022/05/15 15:07:04;;;;;;;;;1.00;1.00;;;;;41.63;32.69;100745.69;6299621;22;46896;-95
2022/05/15 15:09:34;;;;;;;;;1.67;1.67;;;;;40.80;33.22;100741.66;6321373;22;45091;-95
2022/05/15 15:11:59;;;;;;;;;3.67;2.00;;;;;39.99;33.65;100730.75;6325232;22;44824;-95
2022/05/15 15:14:26;;;;;;;;;1.67;1.67;;;;;39.31;34.28;100726.00;6325575;22;44914;-93
2022/05/15 15:16:54;;;;;;;;;3.00;2.00;;;;;38.65;34.88;100725.41;6331413;22;47247;-95
2022/05/15 15:19:22;;;;;;;;;3.33;1.00;;;;;38.02;35.66;100727.16;6328517;22;45214;-95
2022/05/15 15:21:49;;;;;;;;;1.67;1.00;;;;;37.40;36.10;100719.59;6311550;22;45373;-94
2022/05/15 15:24:15;;;;;;;;;2.33;1.00;;;;;36.91;36.86;100715.59;6305756;22;45338;-91
2022/05/15 15:26:41;;;;;;;;;1.33;1.33;;;;;36.48;37.30;100706.53;6305447;22;48246;-94
2022/05/15 15:29:07;;;;;;;;;2.00;1.00;;;;;36.15;38.02;100706.75;6305857;22;45382;-94
2022/05/15 15:31:35;;;;;;;;;3.33;2.00;;;;;35.83;38.61;100701.47;6335462;22;45218;-95
2022/05/15 15:34:04;;;;;;;;;2.00;1.00;;;;;35.51;39.24;100703.41;6309598;22;45404;-94
2022/05/15 15:36:30;;;;;;;;;1.33;1.33;;;;;35.22;39.53;100690.53;6317773;22;47914;-93
2022/05/15 15:38:55;;;;;;;;;3.00;3.00;;;;;34.93;40.12;100690.44;6343076;22;45407;-95
2022/05/15 15:41:21;;;;;;;;;1.00;1.00;;;;;34.70;40.38;100689.91;6343507;22;45293;-94
2022/05/15 15:43:49;;;;;;;;;1.33;1.33;;;;;34.42;40.78;100681.50;6337794;22;45320;-95
2022/05/15 15:46:17;;;;;;;;;3.33;3.33;;;;;34.17;41.27;100676.53;6311904;22;46832;-94
2022/05/15 15:48:43;;;;;;;;;2.67;1.67;;;;;33.93;41.81;100672.38;6309270;22;45310;-94
2022/05/15 15:51:29;;;;;;;;;2.67;2.00;;;;;33.68;42.17;100660.09;6308082;22;45441;-95
2022/05/15 15:54:00;;;;;;;;;1.00;1.00;;;;;33.49;42.88;100657.47;6335769;22;45343;-93
2022/05/15 15:56:32;;;;;;;;;1.00;1.00;;;;;33.30;42.53;100663.88;6336466;22;46402;-93
2022/05/15 15:58:58;;;;;;;;;12.33;12.33;;;;;33.11;43.20;100648.50;6307612;22;45782;-95
2022/05/15 16:01:27;;;;;;;;;1.67;1.67;;;;;32.97;43.54;100651.94;6308120;22;45619;-91
2022/05/15 16:03:54;;;;;;;;;5.00;3.33;;;;;32.81;44.06;100651.88;6335892;22;45270;-92
2022/05/15 16:06:21;;;;;;;;;1.00;1.00;;;;;32.67;44.77;100656.16;6306432;22;48117;-93
2022/05/15 16:08:49;;;;;;;;;4.33;4.33;;;;;32.55;44.99;100650.31;6334514;22;45243;-93
2022/05/15 16:11:16;;;;;;;;;4.00;4.00;;;;;32.43;44.91;100651.81;6306997;22;45412;-91
2022/05/15 16:13:42;;;;;;;;;10.33;10.33;;;;;32.32;45.35;100665.03;6335390;22;45325;-90
2022/05/15 16:16:07;;;;;;;;;3.00;3.00;;;;;32.21;45.28;100665.56;6306847;22;47333;-93
2022/05/15 16:18:34;;;;;;;;;7.00;6.00;;;;;32.14;45.64;100670.38;6307624;22;45424;-93
2022/05/15 16:21:11;;;;;;;;;4.00;2.33;;;;;32.09;46.22;100664.25;6308508;22;45390;-94
2022/05/15 16:23:41;;;;;;;;;11.67;9.67;;;;;32.06;46.31;100667.16;6335574;22;45309;-93
2022/05/15 16:26:09;;;;;;;;;13.67;13.67;;;;;32.02;46.35;100663.69;6345895;22;45463;-92
2022/05/15 16:28:38;;;;;;;;;4.00;4.00;;;;;32.00;46.38;100662.88;6339490;22;45399;-92
2022/05/15 16:31:05;;;;;;;;;2.00;2.00;;;;;31.98;46.80;100653.94;6339590;22;45194;-92
2022/05/15 16:33:32;;;;;;;;;2.00;2.00;;;;;31.99;46.89;100651.13;6309350;22;45282;-95
2022/05/15 16:35:58;;;;;;;;;2.67;1.67;;;;;32.02;46.84;100658.25;6343983;22;46469;-93
2022/05/15 16:38:23;;;;;;;;;2.00;2.00;;;;;32.04;47.06;100650.91;6350861;22;45418;-93
2022/05/15 16:40:48;;;;;;;;;2.00;2.00;;;;;31.99;46.50;100643.00;6310709;22;45502;-94
2022/05/15 16:43:16;;;;;;;;;2.00;2.00;;;;;31.94;46.87;100657.72;6335278;22;45719;-93
2022/05/15 16:45:42;;;;;;;;;1.33;1.33;;;;;31.81;46.85;100646.56;6338193;22;45316;-92
2022/05/15 16:48:07;;;;;;;;;2.00;2.00;;;;;31.69;47.22;100638.06;6336641;22;45293;-94
2022/05/15 16:50:33;;;;;;;;;2.00;1.67;;;;;31.43;47.03;100602.13;6336432;22;45277;-92
2022/05/15 16:52:58;;;;;;;;;4.00;2.33;;;;;31.46;47.26;100623.69;6282048;22;45371;-95
2022/05/15 16:55:26;;;;;;;;;2.00;2.00;;;;;31.34;47.71;100614.25;6333748;22;61118;-93
2022/05/15 16:57:56;;;;;;;;;1.33;1.33;;;;;31.28;47.63;100611.81;6334481;22;45100;-94
2022/05/15 17:00:22;;;;;;;;;1.00;1.00;;;;;31.19;48.07;100607.69;6333996;22;44695;-91
2022/05/15 17:02:48;;;;;;;;;2.00;2.00;;;;;31.13;48.61;100605.25;6294375;22;45282;-92
2022/05/15 17:05:16;;;;;;;;;2.33;1.00;;;;;31.05;48.37;100606.47;6335460;22;45614;-94
2022/05/15 17:07:42;;;;;;;;;2.00;2.00;;;;;30.96;48.56;100596.91;6306745;22;45316;-93
2022/05/15 17:10:08;;;;;;;;;3.00;3.00;;;;;30.87;48.71;100602.72;6324919;22;45298;-93
2022/05/15 17:12:35;;;;;;;;;4.00;3.00;;;;;30.81;49.05;100597.53;6364635;22;45384;-92
2022/05/15 17:15:01;;;;;;;;;2.00;1.00;;;;;30.70;49.38;100598.88;6362593;22;46818;-92
2022/05/15 17:17:26;;;;;;;;;1.00;1.00;;;;;30.65;49.34;100604.50;6366436;22;45257;-94
2022/05/15 17:19:51;;;;;;;;;2.33;2.33;;;;;30.58;49.48;100599.41;6368889;22;45292;-91
2022/05/15 17:22:17;;;;;;;;;2.67;2.67;;;;;30.51;49.41;100596.06;6366388;22;45391;-92
2022/05/15 17:24:43;;;;;;;;;2.33;2.33;;;;;30.45;49.68;100591.78;6338473;22;47881;-94
2022/05/15 17:27:08;;;;;;;;;5.67;2.00;;;;;30.37;49.54;100588.50;6339309;22;45562;-94
2022/05/15 17:35:08;;;;;;;;;0.67;0.67;;;;;30.27;49.98;100578.03;6365656;22;45878;-89
2022/05/15 17:37:35;;;;;;;;;3.33;2.00;;;;;30.27;50.22;100591.56;6366710;22;45249;-94
2022/05/15 17:40:12;;;;;;;;;2.00;2.00;;;;;30.23;50.17;100601.63;6338540;22;45708;-93
2022/05/15 17:42:39;;;;;;;;;2.00;2.00;;;;;30.18;50.45;100611.75;6368509;22;45416;-93
2022/05/15 17:45:10;;;;;;;;;4.67;3.67;;;;;30.15;50.67;100616.41;6365609;22;45571;-91
2022/05/15 19:16:36;;;;;;;;;5.00;5.00;;;;;23.64;100.00;100072.34;6361025;22;45068;-92
2022/05/15 19:19:01;;;;;;;;;3.67;3.67;;;;;23.62;100.00;100055.44;6339891;22;46003;-93
2022/05/15 19:21:27;;;;;;;;;6.00;5.00;;;;;23.51;100.00;100041.38;6340523;22;45440;-94
2022/05/15 19:23:52;;;;;;;;;3.33;3.33;;;;;23.37;100.00;100012.16;6339232;22;47205;-94
2022/05/15 19:26:19;;;;;;;;;5.33;5.00;;;;;23.41;100.00;100011.19;6411493;22;46362;-93
2022/05/15 19:28:44;;;;;;;;;5.33;4.67;;;;;23.33;100.00;99988.13;6485071;21;44795;-94
2022/05/15 19:31:10;;;;;;;;;4.33;4.33;;;;;23.25;100.00;99939.19;6437356;22;45374;-91
2022/05/15 19:41:07;;;;;;;;;15.33;13.00;;;;;23.01;100.00;99842.47;6163088;23;45205;-93
2022/05/15 19:44:19;;;;;;;;;9.67;8.00;;;;;23.09;100.00;99813.72;6053749;23;45148;-96
2022/05/15 19:47:30;;;;;;;;;;;;;;;;;;;;;
2022/05/15 19:49:47;;;;;;;;;6.67;5.33;;;;;23.06;100.00;99812.94;6217284;22;45291;-92
2022/05/15 19:52:15;;;;;;;;;5.00;4.00;;;;;22.98;100.00;99835.38;6375538;22;45411;-94
2022/05/15 19:54:46;;;;;;;;;7.00;5.67;;;;;22.95;100.00;99846.16;6372553;22;45268;-95
2022/05/15 19:57:36;;;;;;;;;4.67;4.33;;;;;22.90;100.00;99848.03;6372468;22;47337;-94
2022/05/15 20:00:11;;;;;;;;;8.33;7.00;;;;;22.87;100.00;99816.88;6372301;22;45501;-94
2022/05/15 20:02:37;;;;;;;;;5.00;5.00;;;;;22.88;100.00;99807.91;6371264;22;45795;-93
2022/05/15 20:13:17;;;;;;;;;10.00;7.67;;;;;22.88;100.00;99799.03;6397698;22;45196;-93
